Carrolls, Washington
Current Conditions -  °F | °C
As of 11:55 PM on Thursday 23 Oct 2014 (Local Time) from KKLS Reporting Station
Overcast Overcast  
Wind Chill: 54°   Ceiling: 6000
Heat Index: 54°   Visibility: 9mi
Dew Point: 48°   Wind: 0mph
Humidity: 82%   Direction: NA
Pressure: 30.04"   Gusts: NA
Location:  46.07°N, 122.86°W
Report Text: KKLS 240655Z AUTO 00000KT 9SM SCT050 OVC060 12/09 A3004 RMK AO1 P0001
Loading
Personal Weather Stations






























Interactive Weather Map
Tropical Storm Tracking
New forecast layout! Learn more

10-Day Weather Forecast

Advertisements
Track Severe Weather on mobile